sensor_id;sensor_type;location;lat;lon;timestamp;temperature;humidity
52965;DHT22;42923;53.220;6.528;2023-08-21T00:01:41;14.60;99.90
52965;DHT22;42923;53.220;6.528;2023-08-21T00:04:07;14.50;99.90
52965;DHT22;42923;53.220;6.528;2023-08-21T00:06:33;14.50;99.90
52965;DHT22;42923;53.220;6.528;2023-08-21T00:09:01;14.50;99.90
52965;DHT22;42923;53.220;6.528;2023-08-21T00:11:27;14.50;99.90
52965;DHT22;42923;53.220;6.528;2023-08-21T00:13:53;14.50;99.90
52965;DHT22;42923;53.220;6.528;2023-08-21T00:16:19;14.50;99.90
52965;DHT22;42923;53.220;6.528;2023-08-21T00:18:45;14.50;99.90
52965;DHT22;42923;53.220;6.528;2023-08-21T00:21:11;14.40;99.90
52965;DHT22;42923;53.220;6.528;2023-08-21T00:23:36;14.40;99.90
52965;DHT22;42923;53.220;6.528;2023-08-21T00:26:02;14.30;99.90
52965;DHT22;42923;53.220;6.528;2023-08-21T00:28:28;14.30;99.90
52965;DHT22;42923;53.220;6.528;2023-08-21T00:31:02;14.30;99.90
52965;DHT22;42923;53.220;6.528;2023-08-21T00:33:30;14.30;99.90
52965;DHT22;42923;53.220;6.528;2023-08-21T00:35:56;14.30;99.90
52965;DHT22;42923;53.220;6.528;2023-08-21T00:38:23;14.30;99.90
52965;DHT22;42923;53.220;6.528;2023-08-21T00:40:49;14.20;99.90
52965;DHT22;42923;53.220;6.528;2023-08-21T00:43:15;14.20;99.90
52965;DHT22;42923;53.220;6.528;2023-08-21T00:45:43;14.20;99.90
52965;DHT22;42923;53.220;6.528;2023-08-21T00:48:10;14.20;99.90
52965;DHT22;42923;53.220;6.528;2023-08-21T00:50:37;14.20;99.90
52965;DHT22;42923;53.220;6.528;2023-08-21T00:53:04;14.20;99.90
52965;DHT22;42923;53.220;6.528;2023-08-21T00:55:33;14.10;99.90
52965;DHT22;42923;53.220;6.528;2023-08-21T00:58:00;14.20;99.90
52965;DHT22;42923;53.220;6.528;2023-08-21T01:00:29;14.20;99.90
52965;DHT22;42923;53.220;6.528;2023-08-21T01:02:55;14.10;99.90
52965;DHT22;42923;53.220;6.528;2023-08-21T01:05:23;14.10;99.90
52965;DHT22;42923;53.220;6.528;2023-08-21T01:07:57;14.10;99.90
52965;DHT22;42923;53.220;6.528;2023-08-21T01:13:26;14.10;99.90
52965;DHT22;42923;53.220;6.528;2023-08-21T01:15:55;14.10;99.90
52965;DHT22;42923;53.220;6.528;2023-08-21T01:18:22;14.00;99.90
52965;DHT22;42923;53.220;6.528;2023-08-21T01:20:50;14.00;99.90
52965;DHT22;42923;53.220;6.528;2023-08-21T01:23:36;14.00;99.90
52965;DHT22;42923;53.220;6.528;2023-08-21T01:26:03;14.00;99.90
52965;DHT22;42923;53.220;6.528;2023-08-21T01:28:31;14.00;99.90
52965;DHT22;42923;53.220;6.528;2023-08-21T01:33:44;13.90;99.90
52965;DHT22;42923;53.220;6.528;2023-08-21T01:36:11;13.90;99.90
52965;DHT22;42923;53.220;6.528;2023-08-21T01:38:37;13.80;99.90
52965;DHT22;42923;53.220;6.528;2023-08-21T01:41:04;13.90;99.90
52965;DHT22;42923;53.220;6.528;2023-08-21T01:43:30;13.80;99.90
52965;DHT22;42923;53.220;6.528;2023-08-21T01:45:55;13.80;99.90
52965;DHT22;42923;53.220;6.528;2023-08-21T01:48:21;13.80;99.90
52965;DHT22;42923;53.220;6.528;2023-08-21T01:50:47;13.80;99.90
52965;DHT22;42923;53.220;6.528;2023-08-21T01:53:13;13.90;99.90
52965;DHT22;42923;53.220;6.528;2023-08-21T01:55:39;13.80;99.90
52965;DHT22;42923;53.220;6.528;2023-08-21T01:58:05;13.80;99.90
52965;DHT22;42923;53.220;6.528;2023-08-21T02:00:31;13.80;99.90
52965;DHT22;42923;53.220;6.528;2023-08-21T02:02:56;13.80;99.90
52965;DHT22;42923;53.220;6.528;2023-08-21T02:05:22;13.70;99.90
52965;DHT22;42923;53.220;6.528;2023-08-21T02:07:48;13.70;99.90
52965;DHT22;42923;53.220;6.528;2023-08-21T02:10:14;13.70;99.90
52965;DHT22;42923;53.220;6.528;2023-08-21T02:12:39;13.70;99.90
52965;DHT22;42923;53.220;6.528;2023-08-21T02:15:05;13.70;99.90
52965;DHT22;42923;53.220;6.528;2023-08-21T02:17:32;13.70;99.90
52965;DHT22;42923;53.220;6.528;2023-08-21T02:19:58;13.70;99.90
52965;DHT22;42923;53.220;6.528;2023-08-21T02:22:24;13.70;99.90
52965;DHT22;42923;53.220;6.528;2023-08-21T02:24:50;13.70;99.90
52965;DHT22;42923;53.220;6.528;2023-08-21T02:27:17;13.70;99.90
52965;DHT22;42923;53.220;6.528;2023-08-21T02:29:43;13.60;99.90
52965;DHT22;42923;53.220;6.528;2023-08-21T02:32:09;13.60;99.90
52965;DHT22;42923;53.220;6.528;2023-08-21T02:34:34;13.60;99.90
52965;DHT22;42923;53.220;6.528;2023-08-21T02:37:00;13.60;99.90
52965;DHT22;42923;53.220;6.528;2023-08-21T02:39:28;13.50;99.90
52965;DHT22;42923;53.220;6.528;2023-08-21T02:41:53;13.50;99.90
52965;DHT22;42923;53.220;6.528;2023-08-21T02:44:19;13.50;99.90
52965;DHT22;42923;53.220;6.528;2023-08-21T02:46:46;13.50;99.90
52965;DHT22;42923;53.220;6.528;2023-08-21T02:49:12;13.50;99.90
52965;DHT22;42923;53.220;6.528;2023-08-21T02:51:38;13.50;99.90
52965;DHT22;42923;53.220;6.528;2023-08-21T02:54:04;13.50;99.90
52965;DHT22;42923;53.220;6.528;2023-08-21T02:56:30;13.50;99.90
52965;DHT22;42923;53.220;6.528;2023-08-21T02:58:56;13.50;99.90
52965;DHT22;42923;53.220;6.528;2023-08-21T03:01:21;13.50;99.90
52965;DHT22;42923;53.220;6.528;2023-08-21T03:03:47;13.50;99.90
52965;DHT22;42923;53.220;6.528;2023-08-21T03:06:14;13.50;99.90
52965;DHT22;42923;53.220;6.528;2023-08-21T03:08:42;13.50;99.90
52965;DHT22;42923;53.220;6.528;2023-08-21T03:11:09;13.50;99.90
52965;DHT22;42923;53.220;6.528;2023-08-21T03:13:35;13.50;99.90
52965;DHT22;42923;53.220;6.528;2023-08-21T03:16:01;13.40;99.90
52965;DHT22;42923;53.220;6.528;2023-08-21T03:18:31;13.40;99.90
52965;DHT22;42923;53.220;6.528;2023-08-21T03:20:57;13.40;99.90
52965;DHT22;42923;53.220;6.528;2023-08-21T03:23:23;13.40;99.90
52965;DHT22;42923;53.220;6.528;2023-08-21T03:25:52;13.40;99.90
52965;DHT22;42923;53.220;6.528;2023-08-21T03:28:18;13.40;99.90
52965;DHT22;42923;53.220;6.528;2023-08-21T03:30:44;13.40;99.90
52965;DHT22;42923;53.220;6.528;2023-08-21T03:33:10;13.40;99.90
52965;DHT22;42923;53.220;6.528;2023-08-21T03:35:37;13.50;99.90
52965;DHT22;42923;53.220;6.528;2023-08-21T03:38:03;13.50;99.90
52965;DHT22;42923;53.220;6.528;2023-08-21T03:40:33;13.50;99.90
52965;DHT22;42923;53.220;6.528;2023-08-21T03:42:59;13.50;99.90
52965;DHT22;42923;53.220;6.528;2023-08-21T03:45:25;13.50;99.90
52965;DHT22;42923;53.220;6.528;2023-08-21T03:47:52;13.50;99.90
52965;DHT22;42923;53.220;6.528;2023-08-21T03:50:19;13.50;99.90
52965;DHT22;42923;53.220;6.528;2023-08-21T03:52:45;13.50;99.90
52965;DHT22;42923;53.220;6.528;2023-08-21T03:55:11;13.50;99.90
52965;DHT22;42923;53.220;6.528;2023-08-21T03:57:37;13.50;99.90
52965;DHT22;42923;53.220;6.528;2023-08-21T04:00:05;13.50;99.90
52965;DHT22;42923;53.220;6.528;2023-08-21T04:02:41;13.50;99.90
52965;DHT22;42923;53.220;6.528;2023-08-21T04:05:07;13.50;99.90
52965;DHT22;42923;53.220;6.528;2023-08-21T04:07:32;13.50;99.90
52965;DHT22;42923;53.220;6.528;2023-08-21T04:09:59;13.50;99.90
52965;DHT22;42923;53.220;6.528;2023-08-21T04:12:26;13.50;99.90
52965;DHT22;42923;53.220;6.528;2023-08-21T04:14:51;13.50;99.90
52965;DHT22;42923;53.220;6.528;2023-08-21T04:17:24;13.50;99.90
52965;DHT22;42923;53.220;6.528;2023-08-21T04:19:50;13.50;99.90
52965;DHT22;42923;53.220;6.528;2023-08-21T04:22:16;13.50;99.90
52965;DHT22;42923;53.220;6.528;2023-08-21T04:24:42;13.40;99.90
52965;DHT22;42923;53.220;6.528;2023-08-21T04:27:08;13.40;99.90
52965;DHT22;42923;53.220;6.528;2023-08-21T04:29:38;13.40;99.90
52965;DHT22;42923;53.220;6.528;2023-08-21T04:32:05;13.40;99.90
52965;DHT22;42923;53.220;6.528;2023-08-21T04:34:35;13.50;99.90
52965;DHT22;42923;53.220;6.528;2023-08-21T04:37:02;13.50;99.90
52965;DHT22;42923;53.220;6.528;2023-08-21T04:39:28;13.50;99.90
52965;DHT22;42923;53.220;6.528;2023-08-21T04:41:54;13.50;99.90
52965;DHT22;42923;53.220;6.528;2023-08-21T04:44:19;13.50;99.90
52965;DHT22;42923;53.220;6.528;2023-08-21T04:46:48;13.50;99.90
52965;DHT22;42923;53.220;6.528;2023-08-21T04:49:15;13.50;99.90
52965;DHT22;42923;53.220;6.528;2023-08-21T04:51:41;13.50;99.90
52965;DHT22;42923;53.220;6.528;2023-08-21T04:54:08;13.50;99.90
52965;DHT22;42923;53.220;6.528;2023-08-21T04:56:33;13.60;99.90
52965;DHT22;42923;53.220;6.528;2023-08-21T04:58:59;13.60;99.90
52965;DHT22;42923;53.220;6.528;2023-08-21T05:01:28;13.60;99.90
52965;DHT22;42923;53.220;6.528;2023-08-21T05:03:56;13.60;99.90
52965;DHT22;42923;53.220;6.528;2023-08-21T05:06:23;13.70;99.90
52965;DHT22;42923;53.220;6.528;2023-08-21T05:08:49;13.70;99.90
52965;DHT22;42923;53.220;6.528;2023-08-21T05:11:15;13.80;99.90
52965;DHT22;42923;53.220;6.528;2023-08-21T05:13:42;13.80;99.90
52965;DHT22;42923;53.220;6.528;2023-08-21T05:16:10;13.70;99.90
52965;DHT22;42923;53.220;6.528;2023-08-21T05:18:38;13.80;99.90
52965;DHT22;42923;53.220;6.528;2023-08-21T05:21:04;13.80;99.90
52965;DHT22;42923;53.220;6.528;2023-08-21T05:23:30;13.80;99.90
52965;DHT22;42923;53.220;6.528;2023-08-21T05:26:01;13.70;99.90
52965;DHT22;42923;53.220;6.528;2023-08-21T05:28:27;13.80;99.90
52965;DHT22;42923;53.220;6.528;2023-08-21T05:30:52;13.80;99.90
52965;DHT22;42923;53.220;6.528;2023-08-21T05:33:19;13.80;99.90
52965;DHT22;42923;53.220;6.528;2023-08-21T05:35:48;13.80;99.90
52965;DHT22;42923;53.220;6.528;2023-08-21T05:38:14;13.90;99.90
52965;DHT22;42923;53.220;6.528;2023-08-21T05:40:41;13.90;99.90
52965;DHT22;42923;53.220;6.528;2023-08-21T05:43:08;14.00;99.90
52965;DHT22;42923;53.220;6.528;2023-08-21T05:45:34;14.00;99.90
52965;DHT22;42923;53.220;6.528;2023-08-21T05:48:00;14.10;99.90
52965;DHT22;42923;53.220;6.528;2023-08-21T05:50:26;14.20;99.90
52965;DHT22;42923;53.220;6.528;2023-08-21T05:52:51;14.30;99.90
52965;DHT22;42923;53.220;6.528;2023-08-21T05:55:20;14.40;99.90
52965;DHT22;42923;53.220;6.528;2023-08-21T05:57:45;14.40;99.90
52965;DHT22;42923;53.220;6.528;2023-08-21T06:00:12;14.50;99.90
52965;DHT22;42923;53.220;6.528;2023-08-21T06:02:41;14.60;99.90
52965;DHT22;42923;53.220;6.528;2023-08-21T06:05:10;14.70;99.90
52965;DHT22;42923;53.220;6.528;2023-08-21T06:07:36;14.80;99.90
52965;DHT22;42923;53.220;6.528;2023-08-21T06:10:01;14.90;99.90
52965;DHT22;42923;53.220;6.528;2023-08-21T06:12:28;15.00;99.90
52965;DHT22;42923;53.220;6.528;2023-08-21T06:14:56;15.20;99.90
52965;DHT22;42923;53.220;6.528;2023-08-21T06:17:22;15.20;99.90
52965;DHT22;42923;53.220;6.528;2023-08-21T06:19:48;15.50;99.90
52965;DHT22;42923;53.220;6.528;2023-08-21T06:22:13;15.40;99.90
52965;DHT22;42923;53.220;6.528;2023-08-21T06:24:41;15.50;99.90
52965;DHT22;42923;53.220;6.528;2023-08-21T06:27:10;15.60;99.90
52965;DHT22;42923;53.220;6.528;2023-08-21T06:29:36;15.70;99.90
52965;DHT22;42923;53.220;6.528;2023-08-21T06:32:03;15.80;99.90
52965;DHT22;42923;53.220;6.528;2023-08-21T06:34:29;15.90;99.90
52965;DHT22;42923;53.220;6.528;2023-08-21T06:36:55;16.10;99.90
52965;DHT22;42923;53.220;6.528;2023-08-21T06:39:21;16.20;99.90
52965;DHT22;42923;53.220;6.528;2023-08-21T06:41:47;16.20;99.90
52965;DHT22;42923;53.220;6.528;2023-08-21T06:44:18;16.30;99.90
52965;DHT22;42923;53.220;6.528;2023-08-21T06:46:43;16.40;99.90
52965;DHT22;42923;53.220;6.528;2023-08-21T06:49:09;16.50;99.90
52965;DHT22;42923;53.220;6.528;2023-08-21T06:51:35;16.60;99.90
52965;DHT22;42923;53.220;6.528;2023-08-21T06:54:01;16.70;99.90
52965;DHT22;42923;53.220;6.528;2023-08-21T06:56:27;16.80;99.90
52965;DHT22;42923;53.220;6.528;2023-08-21T06:58:52;16.90;99.90
52965;DHT22;42923;53.220;6.528;2023-08-21T07:01:21;17.00;99.90
52965;DHT22;42923;53.220;6.528;2023-08-21T07:03:46;17.10;99.90
52965;DHT22;42923;53.220;6.528;2023-08-21T07:06:12;17.20;99.90
52965;DHT22;42923;53.220;6.528;2023-08-21T07:08:38;17.30;99.90
52965;DHT22;42923;53.220;6.528;2023-08-21T07:11:06;17.60;99.90
52965;DHT22;42923;53.220;6.528;2023-08-21T07:13:36;17.60;99.90
52965;DHT22;42923;53.220;6.528;2023-08-21T07:16:02;17.80;99.90
52965;DHT22;42923;53.220;6.528;2023-08-21T07:18:32;17.90;99.90
52965;DHT22;42923;53.220;6.528;2023-08-21T07:20:58;18.00;99.90
52965;DHT22;42923;53.220;6.528;2023-08-21T07:23:23;18.10;99.90
52965;DHT22;42923;53.220;6.528;2023-08-21T07:25:49;18.20;99.90
52965;DHT22;42923;53.220;6.528;2023-08-21T07:28:15;18.30;99.90
52965;DHT22;42923;53.220;6.528;2023-08-21T07:30:40;18.40;99.90
52965;DHT22;42923;53.220;6.528;2023-08-21T07:33:06;18.50;99.90
52965;DHT22;42923;53.220;6.528;2023-08-21T07:35:33;18.60;99.90
52965;DHT22;42923;53.220;6.528;2023-08-21T07:37:58;18.80;99.90
52965;DHT22;42923;53.220;6.528;2023-08-21T07:40:24;18.90;99.90
52965;DHT22;42923;53.220;6.528;2023-08-21T07:42:50;19.00;99.90
52965;DHT22;42923;53.220;6.528;2023-08-21T07:45:16;19.10;99.90
52965;DHT22;42923;53.220;6.528;2023-08-21T07:47:42;19.20;99.90
52965;DHT22;42923;53.220;6.528;2023-08-21T07:50:08;19.40;99.90
52965;DHT22;42923;53.220;6.528;2023-08-21T07:52:35;19.60;99.90
52965;DHT22;42923;53.220;6.528;2023-08-21T07:55:01;19.80;99.90
52965;DHT22;42923;53.220;6.528;2023-08-21T07:57:28;19.90;99.90
52965;DHT22;42923;53.220;6.528;2023-08-21T07:59:55;20.00;99.90
52965;DHT22;42923;53.220;6.528;2023-08-21T08:02:21;20.00;99.90
52965;DHT22;42923;53.220;6.528;2023-08-21T08:04:47;20.10;99.90
52965;DHT22;42923;53.220;6.528;2023-08-21T08:07:13;20.20;99.90
52965;DHT22;42923;53.220;6.528;2023-08-21T08:09:39;20.30;99.90
52965;DHT22;42923;53.220;6.528;2023-08-21T08:12:05;20.30;99.90
52965;DHT22;42923;53.220;6.528;2023-08-21T08:14:31;20.30;99.90
52965;DHT22;42923;53.220;6.528;2023-08-21T08:16:57;20.30;99.90
52965;DHT22;42923;53.220;6.528;2023-08-21T08:19:23;20.30;99.90
52965;DHT22;42923;53.220;6.528;2023-08-21T08:21:49;20.30;99.90
52965;DHT22;42923;53.220;6.528;2023-08-21T08:24:15;20.40;99.90
52965;DHT22;42923;53.220;6.528;2023-08-21T08:26:40;20.40;99.90
52965;DHT22;42923;53.220;6.528;2023-08-21T08:29:08;20.50;99.90
52965;DHT22;42923;53.220;6.528;2023-08-21T08:31:34;20.60;99.90
52965;DHT22;42923;53.220;6.528;2023-08-21T08:34:00;20.60;99.90
52965;DHT22;42923;53.220;6.528;2023-08-21T08:36:26;20.70;99.90
52965;DHT22;42923;53.220;6.528;2023-08-21T08:38:51;20.90;99.90
52965;DHT22;42923;53.220;6.528;2023-08-21T08:43:57;21.10;99.90
52965;DHT22;42923;53.220;6.528;2023-08-21T08:46:24;21.20;99.90
52965;DHT22;42923;53.220;6.528;2023-08-21T08:48:52;21.20;99.90
52965;DHT22;42923;53.220;6.528;2023-08-21T08:51:18;21.20;99.90
52965;DHT22;42923;53.220;6.528;2023-08-21T08:53:44;21.30;99.90
52965;DHT22;42923;53.220;6.528;2023-08-21T08:56:10;21.30;99.90
52965;DHT22;42923;53.220;6.528;2023-08-21T08:58:36;21.40;99.90
52965;DHT22;42923;53.220;6.528;2023-08-21T09:01:02;21.40;99.90
52965;DHT22;42923;53.220;6.528;2023-08-21T09:03:28;21.40;99.90
52965;DHT22;42923;53.220;6.528;2023-08-21T09:05:54;21.50;99.90
52965;DHT22;42923;53.220;6.528;2023-08-21T09:08:20;21.50;99.90
52965;DHT22;42923;53.220;6.528;2023-08-21T09:10:46;21.60;99.90
52965;DHT22;42923;53.220;6.528;2023-08-21T09:13:16;21.60;99.90
52965;DHT22;42923;53.220;6.528;2023-08-21T09:15:48;21.70;99.90
52965;DHT22;42923;53.220;6.528;2023-08-21T09:18:15;21.70;99.90
52965;DHT22;42923;53.220;6.528;2023-08-21T09:20:41;21.80;99.90
52965;DHT22;42923;53.220;6.528;2023-08-21T09:23:08;21.80;99.90
52965;DHT22;42923;53.220;6.528;2023-08-21T09:25:39;21.90;99.90
52965;DHT22;42923;53.220;6.528;2023-08-21T09:28:09;22.00;99.90
52965;DHT22;42923;53.220;6.528;2023-08-21T09:33:11;22.10;99.90
52965;DHT22;42923;53.220;6.528;2023-08-21T09:35:37;22.20;99.90
52965;DHT22;42923;53.220;6.528;2023-08-21T09:38:03;22.30;99.90
52965;DHT22;42923;53.220;6.528;2023-08-21T09:40:30;22.40;99.90
52965;DHT22;42923;53.220;6.528;2023-08-21T09:42:56;22.50;99.90
52965;DHT22;42923;53.220;6.528;2023-08-21T09:45:23;22.50;99.90
52965;DHT22;42923;53.220;6.528;2023-08-21T09:47:51;22.60;99.90
52965;DHT22;42923;53.220;6.528;2023-08-21T09:50:18;22.70;99.90
52965;DHT22;42923;53.220;6.528;2023-08-21T09:52:44;22.70;99.90
52965;DHT22;42923;53.220;6.528;2023-08-21T09:55:10;22.80;99.90
52965;DHT22;42923;53.220;6.528;2023-08-21T09:57:37;22.80;99.90
52965;DHT22;42923;53.220;6.528;2023-08-21T10:00:03;22.90;99.90
52965;DHT22;42923;53.220;6.528;2023-08-21T10:02:42;23.00;99.90
52965;DHT22;42923;53.220;6.528;2023-08-21T10:05:12;23.10;99.90
52965;DHT22;42923;53.220;6.528;2023-08-21T10:07:41;23.20;99.90
52965;DHT22;42923;53.220;6.528;2023-08-21T10:10:08;23.30;99.90
52965;DHT22;42923;53.220;6.528;2023-08-21T10:12:34;23.40;99.90
52965;DHT22;42923;53.220;6.528;2023-08-21T10:15:01;23.50;99.90
52965;DHT22;42923;53.220;6.528;2023-08-21T10:17:27;23.50;99.90
52965;DHT22;42923;53.220;6.528;2023-08-21T10:19:53;23.50;99.90
52965;DHT22;42923;53.220;6.528;2023-08-21T10:22:39;23.60;99.90
52965;DHT22;42923;53.220;6.528;2023-08-21T10:25:23;23.70;99.90
52965;DHT22;42923;53.220;6.528;2023-08-21T10:27:57;23.80;99.90
52965;DHT22;42923;53.220;6.528;2023-08-21T10:30:27;23.90;99.90
52965;DHT22;42923;53.220;6.528;2023-08-21T10:32:59;24.00;99.90
52965;DHT22;42923;53.220;6.528;2023-08-21T10:35:29;24.20;99.90
52965;DHT22;42923;53.220;6.528;2023-08-21T10:38:16;24.40;99.90
52965;DHT22;42923;53.220;6.528;2023-08-21T10:41:08;24.70;99.90
52965;DHT22;42923;53.220;6.528;2023-08-21T10:43:44;25.00;99.90
52965;DHT22;42923;53.220;6.528;2023-08-21T10:46:11;25.50;99.90
52965;DHT22;42923;53.220;6.528;2023-08-21T10:48:38;25.90;99.90
52965;DHT22;42923;53.220;6.528;2023-08-21T10:51:06;26.30;99.90
52965;DHT22;42923;53.220;6.528;2023-08-21T10:53:33;26.60;99.90
52965;DHT22;42923;53.220;6.528;2023-08-21T10:56:03;27.00;99.90
52965;DHT22;42923;53.220;6.528;2023-08-21T10:58:42;27.30;99.90
52965;DHT22;42923;53.220;6.528;2023-08-21T11:01:07;27.60;99.90
52965;DHT22;42923;53.220;6.528;2023-08-21T11:03:33;27.80;99.90
52965;DHT22;42923;53.220;6.528;2023-08-21T11:06:06;27.90;99.90
52965;DHT22;42923;53.220;6.528;2023-08-21T11:08:36;28.10;99.90
52965;DHT22;42923;53.220;6.528;2023-08-21T11:11:03;28.10;99.90
52965;DHT22;42923;53.220;6.528;2023-08-21T11:13:30;28.30;99.90
52965;DHT22;42923;53.220;6.528;2023-08-21T11:16:04;28.50;99.90
52965;DHT22;42923;53.220;6.528;2023-08-21T11:18:35;28.60;99.90
52965;DHT22;42923;53.220;6.528;2023-08-21T11:21:08;28.80;99.90
52965;DHT22;42923;53.220;6.528;2023-08-21T11:23:39;28.90;99.90
52965;DHT22;42923;53.220;6.528;2023-08-21T11:26:07;28.90;99.10
52965;DHT22;42923;53.220;6.528;2023-08-21T11:28:35;29.00;98.20
52965;DHT22;42923;53.220;6.528;2023-08-21T11:31:02;29.00;97.70
52965;DHT22;42923;53.220;6.528;2023-08-21T11:33:29;29.10;97.80
52965;DHT22;42923;53.220;6.528;2023-08-21T11:35:55;29.10;96.20
52965;DHT22;42923;53.220;6.528;2023-08-21T11:38:25;29.00;94.60
52965;DHT22;42923;53.220;6.528;2023-08-21T11:41:02;29.00;96.90
52965;DHT22;42923;53.220;6.528;2023-08-21T11:43:38;29.10;98.80
52965;DHT22;42923;53.220;6.528;2023-08-21T11:46:08;29.30;92.90
52965;DHT22;42923;53.220;6.528;2023-08-21T11:48:40;29.40;96.60
52965;DHT22;42923;53.220;6.528;2023-08-21T11:51:07;29.60;91.00
52965;DHT22;42923;53.220;6.528;2023-08-21T11:53:39;29.70;94.90
52965;DHT22;42923;53.220;6.528;2023-08-21T11:56:16;30.00;95.60
52965;DHT22;42923;53.220;6.528;2023-08-21T11:58:44;30.30;91.80
52965;DHT22;42923;53.220;6.528;2023-08-21T12:01:21;30.50;90.30
52965;DHT22;42923;53.220;6.528;2023-08-21T12:03:47;30.70;89.70
52965;DHT22;42923;53.220;6.528;2023-08-21T12:06:22;30.80;87.20
52965;DHT22;42923;53.220;6.528;2023-08-21T12:08:48;30.90;83.30
52965;DHT22;42923;53.220;6.528;2023-08-21T12:11:14;30.70;82.90
52965;DHT22;42923;53.220;6.528;2023-08-21T12:13:39;30.40;83.00
52965;DHT22;42923;53.220;6.528;2023-08-21T12:16:05;30.20;80.80
52965;DHT22;42923;53.220;6.528;2023-08-21T12:18:31;30.20;80.90
52965;DHT22;42923;53.220;6.528;2023-08-21T12:20:57;30.30;81.70
52965;DHT22;42923;53.220;6.528;2023-08-21T12:23:22;30.30;83.50
52965;DHT22;42923;53.220;6.528;2023-08-21T12:25:48;30.30;82.40
52965;DHT22;42923;53.220;6.528;2023-08-21T12:28:14;30.40;81.10
52965;DHT22;42923;53.220;6.528;2023-08-21T12:30:40;30.50;78.80
52965;DHT22;42923;53.220;6.528;2023-08-21T12:33:05;30.80;80.50
52965;DHT22;42923;53.220;6.528;2023-08-21T12:35:31;31.20;81.70
52965;DHT22;42923;53.220;6.528;2023-08-21T12:37:57;31.60;78.70
52965;DHT22;42923;53.220;6.528;2023-08-21T12:40:24;32.00;78.50
52965;DHT22;42923;53.220;6.528;2023-08-21T12:42:50;32.10;75.30
52965;DHT22;42923;53.220;6.528;2023-08-21T12:45:16;32.10;74.10
52965;DHT22;42923;53.220;6.528;2023-08-21T12:47:42;32.10;72.10
52965;DHT22;42923;53.220;6.528;2023-08-21T12:50:08;32.10;75.00
52965;DHT22;42923;53.220;6.528;2023-08-21T12:52:34;32.30;72.20
52965;DHT22;42923;53.220;6.528;2023-08-21T12:55:00;32.30;74.70
52965;DHT22;42923;53.220;6.528;2023-08-21T12:57:29;32.10;73.00
52965;DHT22;42923;53.220;6.528;2023-08-21T12:59:55;32.10;73.90
52965;DHT22;42923;53.220;6.528;2023-08-21T13:02:20;32.10;75.60
52965;DHT22;42923;53.220;6.528;2023-08-21T13:04:49;32.50;74.90
52965;DHT22;42923;53.220;6.528;2023-08-21T13:07:14;32.70;72.80
52965;DHT22;42923;53.220;6.528;2023-08-21T13:09:40;32.70;72.80
52965;DHT22;42923;53.220;6.528;2023-08-21T13:12:06;32.90;72.70
52965;DHT22;42923;53.220;6.528;2023-08-21T13:14:33;33.10;71.90
52965;DHT22;42923;53.220;6.528;2023-08-21T13:16:59;33.40;71.10
52965;DHT22;42923;53.220;6.528;2023-08-21T13:19:25;33.50;68.20
52965;DHT22;42923;53.220;6.528;2023-08-21T13:21:51;33.40;67.70
52965;DHT22;42923;53.220;6.528;2023-08-21T13:24:17;33.50;67.00
52965;DHT22;42923;53.220;6.528;2023-08-21T13:26:42;33.60;68.30
52965;DHT22;42923;53.220;6.528;2023-08-21T13:29:09;33.70;67.20
52965;DHT22;42923;53.220;6.528;2023-08-21T13:31:34;34.00;67.20
52965;DHT22;42923;53.220;6.528;2023-08-21T13:34:00;34.20;66.10
52965;DHT22;42923;53.220;6.528;2023-08-21T13:36:27;34.30;64.40
52965;DHT22;42923;53.220;6.528;2023-08-21T13:38:52;34.30;65.20
52965;DHT22;42923;53.220;6.528;2023-08-21T13:41:18;34.10;63.40
52965;DHT22;42923;53.220;6.528;2023-08-21T13:43:44;33.20;64.00
52965;DHT22;42923;53.220;6.528;2023-08-21T13:46:10;32.50;64.00
52965;DHT22;42923;53.220;6.528;2023-08-21T13:48:36;32.40;65.60
52965;DHT22;42923;53.220;6.528;2023-08-21T13:51:01;32.60;67.40
52965;DHT22;42923;53.220;6.528;2023-08-21T13:53:27;32.90;66.30
52965;DHT22;42923;53.220;6.528;2023-08-21T13:55:53;33.30;64.30
52965;DHT22;42923;53.220;6.528;2023-08-21T13:58:19;33.60;63.10
52965;DHT22;42923;53.220;6.528;2023-08-21T14:00:44;33.80;62.70
52965;DHT22;42923;53.220;6.528;2023-08-21T14:03:10;34.00;63.90
52965;DHT22;42923;53.220;6.528;2023-08-21T14:05:36;34.20;63.30
52965;DHT22;42923;53.220;6.528;2023-08-21T14:08:03;34.50;64.50
52965;DHT22;42923;53.220;6.528;2023-08-21T14:10:28;34.80;63.70
52965;DHT22;42923;53.220;6.528;2023-08-21T14:12:56;35.00;61.40
52965;DHT22;42923;53.220;6.528;2023-08-21T14:15:23;35.00;63.50
52965;DHT22;42923;53.220;6.528;2023-08-21T14:17:48;35.10;63.50
52965;DHT22;42923;53.220;6.528;2023-08-21T14:20:15;35.40;63.30
52965;DHT22;42923;53.220;6.528;2023-08-21T14:22:41;35.50;59.60
52965;DHT22;42923;53.220;6.528;2023-08-21T14:25:07;35.30;58.60
52965;DHT22;42923;53.220;6.528;2023-08-21T14:27:33;34.30;58.50
52965;DHT22;42923;53.220;6.528;2023-08-21T14:29:59;33.60;61.60
52965;DHT22;42923;53.220;6.528;2023-08-21T14:32:25;33.80;63.00
52965;DHT22;42923;53.220;6.528;2023-08-21T14:34:52;34.30;61.90
52965;DHT22;42923;53.220;6.528;2023-08-21T14:37:21;34.60;59.50
52965;DHT22;42923;53.220;6.528;2023-08-21T14:39:47;34.70;60.80
52965;DHT22;42923;53.220;6.528;2023-08-21T14:42:13;35.00;60.20
52965;DHT22;42923;53.220;6.528;2023-08-21T14:44:39;35.00;58.90
52965;DHT22;42923;53.220;6.528;2023-08-21T14:47:05;35.00;58.90
52965;DHT22;42923;53.220;6.528;2023-08-21T14:49:31;34.90;57.90
52965;DHT22;42923;53.220;6.528;2023-08-21T14:51:58;34.80;58.20
52965;DHT22;42923;53.220;6.528;2023-08-21T14:54:24;34.80;57.90
52965;DHT22;42923;53.220;6.528;2023-08-21T14:56:50;34.50;58.70
52965;DHT22;42923;53.220;6.528;2023-08-21T14:59:17;34.20;57.90
52965;DHT22;42923;53.220;6.528;2023-08-21T15:01:42;33.30;58.60
52965;DHT22;42923;53.220;6.528;2023-08-21T15:04:08;32.60;59.20
52965;DHT22;42923;53.220;6.528;2023-08-21T15:06:35;31.90;59.70
52965;DHT22;42923;53.220;6.528;2023-08-21T15:09:01;31.30;60.30
52965;DHT22;42923;53.220;6.528;2023-08-21T15:11:27;30.70;60.60
52965;DHT22;42923;53.220;6.528;2023-08-21T15:13:52;30.30;61.50
52965;DHT22;42923;53.220;6.528;2023-08-21T15:16:18;29.70;63.30
52965;DHT22;42923;53.220;6.528;2023-08-21T15:18:44;29.30;65.00
52965;DHT22;42923;53.220;6.528;2023-08-21T15:21:12;29.00;66.40
52965;DHT22;42923;53.220;6.528;2023-08-21T15:23:37;28.70;67.60
52965;DHT22;42923;53.220;6.528;2023-08-21T15:26:03;28.40;68.40
52965;DHT22;42923;53.220;6.528;2023-08-21T15:28:29;28.00;69.00
52965;DHT22;42923;53.220;6.528;2023-08-21T15:30:54;27.70;69.80
52965;DHT22;42923;53.220;6.528;2023-08-21T15:33:20;27.40;70.50
52965;DHT22;42923;53.220;6.528;2023-08-21T15:35:46;27.00;71.40
52965;DHT22;42923;53.220;6.528;2023-08-21T15:38:12;26.70;72.00
52965;DHT22;42923;53.220;6.528;2023-08-21T15:40:37;26.40;72.40